sensor_id;sensor_type;location;lat;lon;timestamp;temperature;humidity
674;DHT22;319;48.764;9.174;2023-02-08T00:00:55;0.30;96.70
674;DHT22;319;48.764;9.174;2023-02-08T00:03:24;0.20;95.90
674;DHT22;319;48.764;9.174;2023-02-08T00:05:52;0.20;96.30
674;DHT22;319;48.764;9.174;2023-02-08T00:08:18;0.20;96.40
674;DHT22;319;48.764;9.174;2023-02-08T00:10:47;0.20;96.40
674;DHT22;319;48.764;9.174;2023-02-08T00:13:14;0.20;96.10
674;DHT22;319;48.764;9.174;2023-02-08T00:15:42;0.20;95.80
674;DHT22;319;48.764;9.174;2023-02-08T00:18:09;0.00;99.90
674;DHT22;319;48.764;9.174;2023-02-08T00:20:37;0.00;99.90
674;DHT22;319;48.764;9.174;2023-02-08T00:23:05;0.10;95.80
674;DHT22;319;48.764;9.174;2023-02-08T00:25:32;0.10;95.10
674;DHT22;319;48.764;9.174;2023-02-08T00:28:00;0.00;95.50
674;DHT22;319;48.764;9.174;2023-02-08T00:30:28;0.00;95.60
674;DHT22;319;48.764;9.174;2023-02-08T00:32:55;0.00;95.40
674;DHT22;319;48.764;9.174;2023-02-08T00:35:22;0.00;95.30
674;DHT22;319;48.764;9.174;2023-02-08T00:37:49;0.00;95.70
674;DHT22;319;48.764;9.174;2023-02-08T00:40:16;-0.10;96.10
674;DHT22;319;48.764;9.174;2023-02-08T00:42:42;0.50;99.90
674;DHT22;319;48.764;9.174;2023-02-08T00:45:11;0.00;96.50
674;DHT22;319;48.764;9.174;2023-02-08T00:47:38;-0.10;96.60
674;DHT22;319;48.764;9.174;2023-02-08T00:50:05;-0.10;96.70
674;DHT22;319;48.764;9.174;2023-02-08T00:52:33;-0.10;96.70
674;DHT22;319;48.764;9.174;2023-02-08T00:54:59;0.10;99.90
674;DHT22;319;48.764;9.174;2023-02-08T00:57:26;-0.10;95.00
674;DHT22;319;48.764;9.174;2023-02-08T00:59:53;-0.20;99.90
674;DHT22;319;48.764;9.174;2023-02-08T01:02:21;-0.20;94.70
674;DHT22;319;48.764;9.174;2023-02-08T01:04:48;-0.20;99.90
674;DHT22;319;48.764;9.174;2023-02-08T01:07:15;-0.20;95.80
674;DHT22;319;48.764;9.174;2023-02-08T01:09:45;-0.20;95.70
674;DHT22;319;48.764;9.174;2023-02-08T01:12:11;-0.20;95.40
674;DHT22;319;48.764;9.174;2023-02-08T01:14:38;-0.30;99.90
674;DHT22;319;48.764;9.174;2023-02-08T01:17:06;-0.30;95.40
674;DHT22;319;48.764;9.174;2023-02-08T01:19:34;-0.30;95.30
674;DHT22;319;48.764;9.174;2023-02-08T01:22:01;-0.30;95.10
674;DHT22;319;48.764;9.174;2023-02-08T01:24:28;-0.30;94.90
674;DHT22;319;48.764;9.174;2023-02-08T01:26:55;-0.30;95.20
674;DHT22;319;48.764;9.174;2023-02-08T01:29:22;-0.40;95.30
674;DHT22;319;48.764;9.174;2023-02-08T01:31:48;-0.30;95.40
674;DHT22;319;48.764;9.174;2023-02-08T01:34:15;-0.40;95.50
674;DHT22;319;48.764;9.174;2023-02-08T01:36:43;-0.40;95.50
674;DHT22;319;48.764;9.174;2023-02-08T01:39:10;-0.40;96.10
674;DHT22;319;48.764;9.174;2023-02-08T01:41:38;-0.40;96.60
674;DHT22;319;48.764;9.174;2023-02-08T01:47:13;-0.40;97.70
674;DHT22;319;48.764;9.174;2023-02-08T01:49:40;-0.50;98.40
674;DHT22;319;48.764;9.174;2023-02-08T01:52:11;-0.50;98.50
674;DHT22;319;48.764;9.174;2023-02-08T01:54:43;-0.60;99.90
674;DHT22;319;48.764;9.174;2023-02-08T01:57:12;-0.60;98.20
674;DHT22;319;48.764;9.174;2023-02-08T01:59:41;-0.50;98.00
674;DHT22;319;48.764;9.174;2023-02-08T02:02:12;-0.60;97.60
674;DHT22;319;48.764;9.174;2023-02-08T02:04:40;-0.50;99.90
674;DHT22;319;48.764;9.174;2023-02-08T02:07:08;0.00;97.20
674;DHT22;319;48.764;9.174;2023-02-08T02:09:39;-0.50;96.60
674;DHT22;319;48.764;9.174;2023-02-08T02:12:07;-0.50;96.40
674;DHT22;319;48.764;9.174;2023-02-08T02:14:38;-0.60;99.90
674;DHT22;319;48.764;9.174;2023-02-08T02:17:05;-0.40;97.00
674;DHT22;319;48.764;9.174;2023-02-08T02:19:39;-0.60;96.90
674;DHT22;319;48.764;9.174;2023-02-08T02:22:32;-0.60;96.80
674;DHT22;319;48.764;9.174;2023-02-08T02:25:31;-0.60;96.90
674;DHT22;319;48.764;9.174;2023-02-08T02:34:04;-0.50;98.70
674;DHT22;319;48.764;9.174;2023-02-08T02:36:39;-0.60;99.00
674;DHT22;319;48.764;9.174;2023-02-08T02:39:17;-0.70;99.10
674;DHT22;319;48.764;9.174;2023-02-08T02:41:53;-0.60;99.20
674;DHT22;319;48.764;9.174;2023-02-08T02:44:46;-0.70;99.90
674;DHT22;319;48.764;9.174;2023-02-08T02:47:25;-0.70;99.30
674;DHT22;319;48.764;9.174;2023-02-08T02:49:57;-0.80;99.40
674;DHT22;319;48.764;9.174;2023-02-08T02:52:33;-0.70;99.50
674;DHT22;319;48.764;9.174;2023-02-08T02:55:05;-0.70;99.80
674;DHT22;319;48.764;9.174;2023-02-08T02:57:33;-0.70;99.70
674;DHT22;319;48.764;9.174;2023-02-08T03:00:06;-0.70;99.60
674;DHT22;319;48.764;9.174;2023-02-08T03:02:33;-0.70;99.60
674;DHT22;319;48.764;9.174;2023-02-08T03:05:02;-0.80;99.70
674;DHT22;319;48.764;9.174;2023-02-08T03:08:11;-0.90;99.60
674;DHT22;319;48.764;9.174;2023-02-08T03:11:09;-0.90;99.50
674;DHT22;319;48.764;9.174;2023-02-08T03:13:52;-0.90;99.40
674;DHT22;319;48.764;9.174;2023-02-08T03:16:27;-0.90;99.30
674;DHT22;319;48.764;9.174;2023-02-08T03:19:06;-0.90;99.20
674;DHT22;319;48.764;9.174;2023-02-08T03:21:40;-0.70;99.60
674;DHT22;319;48.764;9.174;2023-02-08T03:24:18;-0.90;99.50
674;DHT22;319;48.764;9.174;2023-02-08T03:26:53;-0.80;99.60
674;DHT22;319;48.764;9.174;2023-02-08T03:29:26;-0.90;99.80
674;DHT22;319;48.764;9.174;2023-02-08T03:31:59;-0.80;99.50
674;DHT22;319;48.764;9.174;2023-02-08T03:34:33;-0.90;99.60
674;DHT22;319;48.764;9.174;2023-02-08T03:37:06;-0.80;99.70
674;DHT22;319;48.764;9.174;2023-02-08T03:39:37;-0.90;99.60
674;DHT22;319;48.764;9.174;2023-02-08T03:42:11;-1.00;99.60
674;DHT22;319;48.764;9.174;2023-02-08T03:44:41;-0.90;99.90
674;DHT22;319;48.764;9.174;2023-02-08T03:47:12;-1.00;99.50
674;DHT22;319;48.764;9.174;2023-02-08T03:49:42;-1.10;99.20
674;DHT22;319;48.764;9.174;2023-02-08T03:52:11;-1.10;99.30
674;DHT22;319;48.764;9.174;2023-02-08T03:54:40;-1.10;99.90
674;DHT22;319;48.764;9.174;2023-02-08T03:57:12;-1.00;99.40
674;DHT22;319;48.764;9.174;2023-02-08T03:59:43;-1.00;99.10
674;DHT22;319;48.764;9.174;2023-02-08T04:02:15;-1.00;99.20
674;DHT22;319;48.764;9.174;2023-02-08T04:04:45;-1.10;99.90
674;DHT22;319;48.764;9.174;2023-02-08T04:07:15;-1.00;99.60
674;DHT22;319;48.764;9.174;2023-02-08T04:09:43;-1.10;99.60
674;DHT22;319;48.764;9.174;2023-02-08T04:12:10;-1.10;99.80
674;DHT22;319;48.764;9.174;2023-02-08T04:14:36;-1.20;99.90
674;DHT22;319;48.764;9.174;2023-02-08T04:17:03;-1.20;99.90
674;DHT22;319;48.764;9.174;2023-02-08T04:19:30;-1.10;99.90
674;DHT22;319;48.764;9.174;2023-02-08T04:21:57;-1.10;99.90
674;DHT22;319;48.764;9.174;2023-02-08T04:24:25;-1.10;99.90
674;DHT22;319;48.764;9.174;2023-02-08T04:26:52;-1.10;99.80
674;DHT22;319;48.764;9.174;2023-02-08T04:29:18;-1.10;99.80
674;DHT22;319;48.764;9.174;2023-02-08T04:31:45;-1.10;99.70
674;DHT22;319;48.764;9.174;2023-02-08T04:34:12;-1.10;99.70
674;DHT22;319;48.764;9.174;2023-02-08T04:36:38;-1.20;99.60
674;DHT22;319;48.764;9.174;2023-02-08T04:39:05;-1.20;99.70
674;DHT22;319;48.764;9.174;2023-02-08T04:41:33;-1.20;99.70
674;DHT22;319;48.764;9.174;2023-02-08T04:44:00;-1.20;99.70
674;DHT22;319;48.764;9.174;2023-02-08T04:46:27;-1.20;99.70
674;DHT22;319;48.764;9.174;2023-02-08T04:48:54;-1.20;99.90
674;DHT22;319;48.764;9.174;2023-02-08T04:51:20;-1.20;99.90
674;DHT22;319;48.764;9.174;2023-02-08T04:53:47;-1.20;99.90
674;DHT22;319;48.764;9.174;2023-02-08T04:56:14;-1.20;99.90
674;DHT22;319;48.764;9.174;2023-02-08T04:58:42;-1.20;99.90
674;DHT22;319;48.764;9.174;2023-02-08T05:01:09;-1.20;99.90
674;DHT22;319;48.764;9.174;2023-02-08T05:03:36;-1.30;99.90
674;DHT22;319;48.764;9.174;2023-02-08T05:06:03;-1.20;99.90
674;DHT22;319;48.764;9.174;2023-02-08T05:08:30;-1.30;99.90
674;DHT22;319;48.764;9.174;2023-02-08T05:10:57;-1.20;99.90
674;DHT22;319;48.764;9.174;2023-02-08T05:13:24;-1.30;99.90
674;DHT22;319;48.764;9.174;2023-02-08T05:15:52;-1.30;99.90
674;DHT22;319;48.764;9.174;2023-02-08T05:18:21;-1.30;99.90
674;DHT22;319;48.764;9.174;2023-02-08T05:20:53;-1.30;99.90
674;DHT22;319;48.764;9.174;2023-02-08T05:23:20;-1.30;99.90
674;DHT22;319;48.764;9.174;2023-02-08T05:25:47;-1.30;99.90
674;DHT22;319;48.764;9.174;2023-02-08T05:28:15;-1.20;99.90
674;DHT22;319;48.764;9.174;2023-02-08T05:30:42;-1.30;99.90
674;DHT22;319;48.764;9.174;2023-02-08T05:33:10;-1.40;99.90
674;DHT22;319;48.764;9.174;2023-02-08T05:35:37;-1.30;99.90
674;DHT22;319;48.764;9.174;2023-02-08T05:38:04;-1.50;99.90
674;DHT22;319;48.764;9.174;2023-02-08T05:40:31;-1.40;99.90
674;DHT22;319;48.764;9.174;2023-02-08T05:42:58;-1.40;99.90
674;DHT22;319;48.764;9.174;2023-02-08T05:45:25;-1.50;99.90
674;DHT22;319;48.764;9.174;2023-02-08T05:47:52;-1.40;99.90
674;DHT22;319;48.764;9.174;2023-02-08T05:50:20;-1.40;99.90
674;DHT22;319;48.764;9.174;2023-02-08T05:52:47;-1.40;99.90
674;DHT22;319;48.764;9.174;2023-02-08T05:55:13;-1.40;99.90
674;DHT22;319;48.764;9.174;2023-02-08T05:57:40;-1.50;99.90
674;DHT22;319;48.764;9.174;2023-02-08T06:00:08;-1.40;99.90
674;DHT22;319;48.764;9.174;2023-02-08T06:02:35;-1.40;99.90
674;DHT22;319;48.764;9.174;2023-02-08T06:05:02;-1.40;99.70
674;DHT22;319;48.764;9.174;2023-02-08T06:07:30;-1.50;99.40
674;DHT22;319;48.764;9.174;2023-02-08T06:09:56;-1.40;99.90
674;DHT22;319;48.764;9.174;2023-02-08T06:12:23;-1.40;99.60
674;DHT22;319;48.764;9.174;2023-02-08T06:14:50;-1.30;99.90
674;DHT22;319;48.764;9.174;2023-02-08T06:17:16;-1.40;99.90
674;DHT22;319;48.764;9.174;2023-02-08T06:19:43;-1.40;99.90
674;DHT22;319;48.764;9.174;2023-02-08T06:22:10;-1.40;99.90
674;DHT22;319;48.764;9.174;2023-02-08T06:24:38;-1.50;99.90
674;DHT22;319;48.764;9.174;2023-02-08T06:27:05;-1.40;99.50
674;DHT22;319;48.764;9.174;2023-02-08T06:29:31;-1.30;99.30
674;DHT22;319;48.764;9.174;2023-02-08T06:31:58;-1.30;98.90
674;DHT22;319;48.764;9.174;2023-02-08T06:34:25;-1.40;98.40
674;DHT22;319;48.764;9.174;2023-02-08T06:36:52;-1.40;98.30
674;DHT22;319;48.764;9.174;2023-02-08T06:39:18;-1.40;98.70
674;DHT22;319;48.764;9.174;2023-02-08T06:41:46;-1.50;98.80
674;DHT22;319;48.764;9.174;2023-02-08T06:44:13;-1.40;98.90
674;DHT22;319;48.764;9.174;2023-02-08T06:46:40;-1.40;99.00
674;DHT22;319;48.764;9.174;2023-02-08T06:49:07;-1.40;99.00
674;DHT22;319;48.764;9.174;2023-02-08T06:51:34;-1.40;99.20
674;DHT22;319;48.764;9.174;2023-02-08T06:54:00;-2.00;98.80
674;DHT22;319;48.764;9.174;2023-02-08T06:56:27;-1.50;98.90
674;DHT22;319;48.764;9.174;2023-02-08T06:58:56;-1.40;98.70
674;DHT22;319;48.764;9.174;2023-02-08T07:01:23;-1.50;99.90
674;DHT22;319;48.764;9.174;2023-02-08T07:03:50;-1.40;98.20
674;DHT22;319;48.764;9.174;2023-02-08T07:06:18;-1.40;98.20
674;DHT22;319;48.764;9.174;2023-02-08T07:08:46;-1.40;98.40
674;DHT22;319;48.764;9.174;2023-02-08T07:11:14;-1.40;98.60
674;DHT22;319;48.764;9.174;2023-02-08T07:13:42;-1.30;99.10
674;DHT22;319;48.764;9.174;2023-02-08T07:16:13;-1.30;99.20
674;DHT22;319;48.764;9.174;2023-02-08T07:18:40;-1.30;99.10
674;DHT22;319;48.764;9.174;2023-02-08T07:21:07;-1.30;98.90
674;DHT22;319;48.764;9.174;2023-02-08T07:23:35;-1.30;98.30
674;DHT22;319;48.764;9.174;2023-02-08T07:26:03;-1.30;98.30
674;DHT22;319;48.764;9.174;2023-02-08T07:28:31;-1.30;97.50
674;DHT22;319;48.764;9.174;2023-02-08T07:30:58;-1.30;97.10
674;DHT22;319;48.764;9.174;2023-02-08T07:33:26;-1.20;96.80
674;DHT22;319;48.764;9.174;2023-02-08T07:35:52;-1.20;96.80
674;DHT22;319;48.764;9.174;2023-02-08T07:38:21;-1.30;96.40
674;DHT22;319;48.764;9.174;2023-02-08T07:40:48;-1.10;96.60
674;DHT22;319;48.764;9.174;2023-02-08T07:43:15;-1.10;96.70
674;DHT22;319;48.764;9.174;2023-02-08T07:45:42;-1.10;96.40
674;DHT22;319;48.764;9.174;2023-02-08T07:48:08;-1.10;95.90
674;DHT22;319;48.764;9.174;2023-02-08T07:50:37;-1.00;96.00
674;DHT22;319;48.764;9.174;2023-02-08T07:53:03;-1.00;96.00
674;DHT22;319;48.764;9.174;2023-02-08T07:55:30;-1.00;96.10
674;DHT22;319;48.764;9.174;2023-02-08T07:57:57;-0.90;96.30
674;DHT22;319;48.764;9.174;2023-02-08T08:00:24;-0.80;99.90
674;DHT22;319;48.764;9.174;2023-02-08T08:02:51;-0.90;96.00
674;DHT22;319;48.764;9.174;2023-02-08T08:05:18;-0.10;96.30
674;DHT22;319;48.764;9.174;2023-02-08T08:07:47;-0.90;95.90
674;DHT22;319;48.764;9.174;2023-02-08T08:10:14;-0.80;95.80
674;DHT22;319;48.764;9.174;2023-02-08T08:12:41;-0.80;95.50
674;DHT22;319;48.764;9.174;2023-02-08T08:15:08;-0.80;95.40
674;DHT22;319;48.764;9.174;2023-02-08T08:17:34;-0.70;95.50
674;DHT22;319;48.764;9.174;2023-02-08T08:20:01;-0.60;95.60
674;DHT22;319;48.764;9.174;2023-02-08T08:22:28;-0.40;95.30
674;DHT22;319;48.764;9.174;2023-02-08T08:24:56;-0.40;95.00
674;DHT22;319;48.764;9.174;2023-02-08T08:27:24;-0.30;94.70
674;DHT22;319;48.764;9.174;2023-02-08T08:29:51;-0.10;94.20
674;DHT22;319;48.764;9.174;2023-02-08T08:32:18;-0.10;94.00
674;DHT22;319;48.764;9.174;2023-02-08T08:34:44;0.20;99.90
674;DHT22;319;48.764;9.174;2023-02-08T08:37:11;0.20;93.20
674;DHT22;319;48.764;9.174;2023-02-08T08:39:38;0.30;93.00
674;DHT22;319;48.764;9.174;2023-02-08T08:42:06;0.70;92.80
674;DHT22;319;48.764;9.174;2023-02-08T08:44:33;1.50;99.90
674;DHT22;319;48.764;9.174;2023-02-08T08:47:00;1.70;91.10
674;DHT22;319;48.764;9.174;2023-02-08T08:49:28;2.40;90.50
674;DHT22;319;48.764;9.174;2023-02-08T08:51:55;2.80;88.50
674;DHT22;319;48.764;9.174;2023-02-08T08:54:22;3.40;86.80
674;DHT22;319;48.764;9.174;2023-02-08T08:56:49;3.60;84.50
674;DHT22;319;48.764;9.174;2023-02-08T08:59:17;4.00;83.50
674;DHT22;319;48.764;9.174;2023-02-08T09:01:44;3.80;81.50
674;DHT22;319;48.764;9.174;2023-02-08T09:04:11;3.60;81.20
674;DHT22;319;48.764;9.174;2023-02-08T09:06:38;3.70;81.60
674;DHT22;319;48.764;9.174;2023-02-08T09:09:05;4.20;81.30
674;DHT22;319;48.764;9.174;2023-02-08T09:11:32;4.60;79.70
674;DHT22;319;48.764;9.174;2023-02-08T09:14:00;4.80;78.50
674;DHT22;319;48.764;9.174;2023-02-08T09:16:28;5.20;76.50
674;DHT22;319;48.764;9.174;2023-02-08T09:18:55;5.60;74.00
674;DHT22;319;48.764;9.174;2023-02-08T09:21:22;5.40;70.80
674;DHT22;319;48.764;9.174;2023-02-08T09:23:50;5.30;70.60
674;DHT22;319;48.764;9.174;2023-02-08T09:26:18;4.90;70.70
674;DHT22;319;48.764;9.174;2023-02-08T09:28:45;4.70;88.70
674;DHT22;319;48.764;9.174;2023-02-08T09:31:18;4.60;71.50
674;DHT22;319;48.764;9.174;2023-02-08T09:33:47;4.30;72.50
674;DHT22;319;48.764;9.174;2023-02-08T09:36:15;4.10;73.20
674;DHT22;319;48.764;9.174;2023-02-08T09:38:43;4.10;73.50
674;DHT22;319;48.764;9.174;2023-02-08T09:41:23;3.90;73.90
674;DHT22;319;48.764;9.174;2023-02-08T09:44:02;3.90;73.90
674;DHT22;319;48.764;9.174;2023-02-08T09:46:36;3.80;74.20
674;DHT22;319;48.764;9.174;2023-02-08T09:49:10;3.60;73.30
674;DHT22;319;48.764;9.174;2023-02-08T09:51:42;3.60;74.10
674;DHT22;319;48.764;9.174;2023-02-08T09:54:15;3.80;74.30
674;DHT22;319;48.764;9.174;2023-02-08T09:56:44;3.90;74.00
674;DHT22;319;48.764;9.174;2023-02-08T09:59:15;3.90;74.10
674;DHT22;319;48.764;9.174;2023-02-08T10:01:42;3.90;74.00
674;DHT22;319;48.764;9.174;2023-02-08T10:04:18;3.90;73.70
674;DHT22;319;48.764;9.174;2023-02-08T10:06:47;4.00;73.30
674;DHT22;319;48.764;9.174;2023-02-08T10:09:15;3.60;72.60
674;DHT22;319;48.764;9.174;2023-02-08T10:11:52;3.50;73.60
674;DHT22;319;48.764;9.174;2023-02-08T10:14:29;3.60;73.90
674;DHT22;319;48.764;9.174;2023-02-08T10:17:08;3.70;73.60
674;DHT22;319;48.764;9.174;2023-02-08T10:19:49;3.60;73.70
674;DHT22;319;48.764;9.174;2023-02-08T10:22:28;3.70;73.50
674;DHT22;319;48.764;9.174;2023-02-08T10:25:26;3.60;73.40
674;DHT22;319;48.764;9.174;2023-02-08T10:28:17;3.70;74.20
674;DHT22;319;48.764;9.174;2023-02-08T10:30:51;3.80;74.50
674;DHT22;319;48.764;9.174;2023-02-08T10:33:26;3.90;73.40
674;DHT22;319;48.764;9.174;2023-02-08T10:35:57;4.00;72.60
674;DHT22;319;48.764;9.174;2023-02-08T10:38:25;4.10;72.50
674;DHT22;319;48.764;9.174;2023-02-08T10:40:56;4.10;72.20
674;DHT22;319;48.764;9.174;2023-02-08T10:43:31;4.20;72.40
674;DHT22;319;48.764;9.174;2023-02-08T10:46:06;4.20;71.20
674;DHT22;319;48.764;9.174;2023-02-08T10:49:47;4.20;71.40
674;DHT22;319;48.764;9.174;2023-02-08T10:51:57;4.20;71.50
674;DHT22;319;48.764;9.174;2023-02-08T10:54:24;4.20;71.30
674;DHT22;319;48.764;9.174;2023-02-08T10:56:54;4.20;71.30
674;DHT22;319;48.764;9.174;2023-02-08T10:59:26;4.10;71.20
674;DHT22;319;48.764;9.174;2023-02-08T11:01:54;4.20;71.60
674;DHT22;319;48.764;9.174;2023-02-08T11:04:21;4.30;70.90
674;DHT22;319;48.764;9.174;2023-02-08T11:06:49;4.40;71.30
674;DHT22;319;48.764;9.174;2023-02-08T11:09:23;4.50;70.80
674;DHT22;319;48.764;9.174;2023-02-08T11:11:51;4.50;70.30
674;DHT22;319;48.764;9.174;2023-02-08T11:14:23;4.50;70.20
674;DHT22;319;48.764;9.174;2023-02-08T11:16:51;4.70;70.20
674;DHT22;319;48.764;9.174;2023-02-08T11:19:32;4.70;69.30
674;DHT22;319;48.764;9.174;2023-02-08T11:22:01;4.70;90.10
674;DHT22;319;48.764;9.174;2023-02-08T11:24:34;4.80;68.90
674;DHT22;319;48.764;9.174;2023-02-08T11:27:15;4.90;68.40
674;DHT22;319;48.764;9.174;2023-02-08T11:29:42;4.90;68.50
674;DHT22;319;48.764;9.174;2023-02-08T11:32:15;5.10;67.50
674;DHT22;319;48.764;9.174;2023-02-08T11:34:42;5.00;88.20
674;DHT22;319;48.764;9.174;2023-02-08T11:37:14;5.10;68.10
674;DHT22;319;48.764;9.174;2023-02-08T11:39:45;5.20;68.10
674;DHT22;319;48.764;9.174;2023-02-08T11:42:19;5.30;67.70
674;DHT22;319;48.764;9.174;2023-02-08T11:44:47;5.20;87.20
674;DHT22;319;48.764;9.174;2023-02-08T11:47:17;5.30;67.20
674;DHT22;319;48.764;9.174;2023-02-08T11:49:51;5.30;67.10
674;DHT22;319;48.764;9.174;2023-02-08T11:52:20;5.30;67.20
674;DHT22;319;48.764;9.174;2023-02-08T11:54:51;5.20;86.70
674;DHT22;319;48.764;9.174;2023-02-08T11:57:19;5.30;67.00
674;DHT22;319;48.764;9.174;2023-02-08T11:59:47;5.50;85.10
674;DHT22;319;48.764;9.174;2023-02-08T12:02:29;5.60;67.20
674;DHT22;319;48.764;9.174;2023-02-08T12:04:57;5.80;77.80
674;DHT22;319;48.764;9.174;2023-02-08T12:07:33;5.70;66.10
674;DHT22;319;48.764;9.174;2023-02-08T12:10:37;5.70;66.10
674;DHT22;319;48.764;9.174;2023-02-08T12:13:21;5.60;65.70
674;DHT22;319;48.764;9.174;2023-02-08T12:15:59;5.70;66.10
674;DHT22;319;48.764;9.174;2023-02-08T12:18:46;5.80;65.80
674;DHT22;319;48.764;9.174;2023-02-08T12:21:17;5.90;65.70
674;DHT22;319;48.764;9.174;2023-02-08T12:23:49;6.00;64.80
674;DHT22;319;48.764;9.174;2023-02-08T12:26:24;6.00;64.90
674;DHT22;319;48.764;9.174;2023-02-08T12:29:15;5.90;63.80
674;DHT22;319;48.764;9.174;2023-02-08T12:32:02;5.70;64.40
674;DHT22;319;48.764;9.174;2023-02-08T12:34:45;5.80;67.50
674;DHT22;319;48.764;9.174;2023-02-08T12:37:28;5.90;65.50
674;DHT22;319;48.764;9.174;2023-02-08T12:40:26;6.10;65.20
674;DHT22;319;48.764;9.174;2023-02-08T12:43:35;6.10;63.70
674;DHT22;319;48.764;9.174;2023-02-08T12:46:31;6.10;63.90
674;DHT22;319;48.764;9.174;2023-02-08T12:49:24;6.20;64.00
674;DHT22;319;48.764;9.174;2023-02-08T12:52:00;6.20;63.70
674;DHT22;319;48.764;9.174;2023-02-08T12:54:32;6.10;63.70
674;DHT22;319;48.764;9.174;2023-02-08T12:57:01;6.10;63.70
674;DHT22;319;48.764;9.174;2023-02-08T12:59:34;6.00;63.60
674;DHT22;319;48.764;9.174;2023-02-08T13:02:11;6.00;63.60
674;DHT22;319;48.764;9.174;2023-02-08T13:04:42;6.10;63.90
674;DHT22;319;48.764;9.174;2023-02-08T13:07:13;6.50;64.20
674;DHT22;319;48.764;9.174;2023-02-08T13:09:45;6.20;63.70
674;DHT22;319;48.764;9.174;2023-02-08T13:12:16;6.30;62.90
674;DHT22;319;48.764;9.174;2023-02-08T13:14:49;6.00;81.20
674;DHT22;319;48.764;9.174;2023-02-08T13:17:20;6.10;63.00
674;DHT22;319;48.764;9.174;2023-02-08T13:19:52;6.20;63.40
674;DHT22;319;48.764;9.174;2023-02-08T13:22:20;6.30;63.20
674;DHT22;319;48.764;9.174;2023-02-08T13:24:48;6.40;80.30
674;DHT22;319;48.764;9.174;2023-02-08T13:27:18;6.50;62.90
674;DHT22;319;48.764;9.174;2023-02-08T13:29:48;6.50;63.20
674;DHT22;319;48.764;9.174;2023-02-08T13:32:19;6.50;62.70
674;DHT22;319;48.764;9.174;2023-02-08T13:34:57;6.50;63.20
674;DHT22;319;48.764;9.174;2023-02-08T13:37:27;6.50;62.60
674;DHT22;319;48.764;9.174;2023-02-08T13:40:01;6.50;63.00
674;DHT22;319;48.764;9.174;2023-02-08T13:42:33;6.40;63.00
674;DHT22;319;48.764;9.174;2023-02-08T13:45:04;6.40;63.20
674;DHT22;319;48.764;9.174;2023-02-08T13:47:37;6.40;63.50
674;DHT22;319;48.764;9.174;2023-02-08T13:50:39;6.40;63.90
674;DHT22;319;48.764;9.174;2023-02-08T13:53:07;6.50;64.10
674;DHT22;319;48.764;9.174;2023-02-08T13:55:55;6.50;63.80
674;DHT22;319;48.764;9.174;2023-02-08T14:01:34;6.40;63.50
674;DHT22;319;48.764;9.174;2023-02-08T14:04:35;6.20;82.20
674;DHT22;319;48.764;9.174;2023-02-08T14:07:38;6.20;63.70
674;DHT22;319;48.764;9.174;2023-02-08T14:10:23;6.20;64.10
674;DHT22;319;48.764;9.174;2023-02-08T14:12:59;6.20;64.30
674;DHT22;319;48.764;9.174;2023-02-08T14:15:32;8.60;67.20
674;DHT22;319;48.764;9.174;2023-02-08T14:18:03;6.20;64.50
674;DHT22;319;48.764;9.174;2023-02-08T14:23:21;6.20;65.10
674;DHT22;319;48.764;9.174;2023-02-08T14:25:51;6.20;65.70
674;DHT22;319;48.764;9.174;2023-02-08T14:28:28;5.80;65.80
674;DHT22;319;48.764;9.174;2023-02-08T14:30:59;6.20;66.30
674;DHT22;319;48.764;9.174;2023-02-08T14:33:31;6.50;65.90
674;DHT22;319;48.764;9.174;2023-02-08T14:36:01;6.20;65.70
674;DHT22;319;48.764;9.174;2023-02-08T14:39:06;7.60;71.60
674;DHT22;319;48.764;9.174;2023-02-08T14:41:49;6.10;66.20
674;DHT22;319;48.764;9.174;2023-02-08T14:44:56;5.60;66.50
674;DHT22;319;48.764;9.174;2023-02-08T14:50:31;6.00;88.70
674;DHT22;319;48.764;9.174;2023-02-08T14:53:03;5.90;67.80
674;DHT22;319;48.764;9.174;2023-02-08T14:55:36;5.90;90.10
674;DHT22;319;48.764;9.174;2023-02-08T14:58:11;5.80;68.80
674;DHT22;319;48.764;9.174;2023-02-08T15:00:40;7.40;71.00
674;DHT22;319;48.764;9.174;2023-02-08T15:03:13;5.40;69.10
674;DHT22;319;48.764;9.174;2023-02-08T15:05:58;5.40;69.10
674;DHT22;319;48.764;9.174;2023-02-08T15:08:29;5.40;70.50
674;DHT22;319;48.764;9.174;2023-02-08T15:10:56;5.50;69.90
674;DHT22;319;48.764;9.174;2023-02-08T15:13:24;5.50;71.50
674;DHT22;319;48.764;9.174;2023-02-08T15:15:53;6.20;72.10
674;DHT22;319;48.764;9.174;2023-02-08T15:18:22;6.50;72.10
674;DHT22;319;48.764;9.174;2023-02-08T15:21:01;5.30;70.90
674;DHT22;319;48.764;9.174;2023-02-08T15:23:28;5.30;71.20
674;DHT22;319;48.764;9.174;2023-02-08T15:25:59;5.30;71.40
674;DHT22;319;48.764;9.174;2023-02-08T15:28:28;5.30;71.60
674;DHT22;319;48.764;9.174;2023-02-08T15:30:57;5.30;71.90
674;DHT22;319;48.764;9.174;2023-02-08T15:33:25;5.30;72.20
674;DHT22;319;48.764;9.174;2023-02-08T15:35:57;5.30;72.20
674;DHT22;319;48.764;9.174;2023-02-08T15:38:25;5.20;72.20
674;DHT22;319;48.764;9.174;2023-02-08T15:41:00;5.30;72.80
674;DHT22;319;48.764;9.174;2023-02-08T15:43:28;5.20;72.80
674;DHT22;319;48.764;9.174;2023-02-08T15:45:55;5.20;72.60
674;DHT22;319;48.764;9.174;2023-02-08T15:51:47;5.10;72.80
674;DHT22;319;48.764;9.174;2023-02-08T15:58:03;4.80;91.60
674;DHT22;319;48.764;9.174;2023-02-08T16:00:34;5.00;74.70
674;DHT22;319;48.764;9.174;2023-02-08T16:03:04;4.90;74.20
674;DHT22;319;48.764;9.174;2023-02-08T16:05:33;4.90;74.90
674;DHT22;319;48.764;9.174;2023-02-08T16:08:03;4.80;74.60
674;DHT22;319;48.764;9.174;2023-02-08T16:10:33;4.80;74.30
674;DHT22;319;48.764;9.174;2023-02-08T16:13:03;4.60;74.20
674;DHT22;319;48.764;9.174;2023-02-08T16:15:36;5.40;92.80
674;DHT22;319;48.764;9.174;2023-02-08T16:18:04;4.50;75.60
674;DHT22;319;48.764;9.174;2023-02-08T16:20:33;4.40;77.40
674;DHT22;319;48.764;9.174;2023-02-08T16:23:04;5.90;78.20
674;DHT22;319;48.764;9.174;2023-02-08T16:28:25;4.40;75.00
674;DHT22;319;48.764;9.174;2023-02-08T16:30:54;4.30;92.80
674;DHT22;319;48.764;9.174;2023-02-08T16:38:20;4.00;76.60
674;DHT22;319;48.764;9.174;2023-02-08T16:40:48;4.00;78.60
674;DHT22;319;48.764;9.174;2023-02-08T16:43:22;3.90;78.00
674;DHT22;319;48.764;9.174;2023-02-08T16:46:19;3.80;79.10
674;DHT22;319;48.764;9.174;2023-02-08T16:48:51;3.70;81.10
674;DHT22;319;48.764;9.174;2023-02-08T16:51:21;3.50;79.20
674;DHT22;319;48.764;9.174;2023-02-08T16:53:52;3.60;81.20
674;DHT22;319;48.764;9.174;2023-02-08T16:56:20;3.00;82.10
674;DHT22;319;48.764;9.174;2023-02-08T16:58:47;3.50;83.10
674;DHT22;319;48.764;9.174;2023-02-08T17:01:14;4.20;84.30
674;DHT22;319;48.764;9.174;2023-02-08T17:03:41;3.30;83.50
674;DHT22;319;48.764;9.174;2023-02-08T17:06:22;3.30;84.00
674;DHT22;319;48.764;9.174;2023-02-08T17:08:51;3.10;84.20
674;DHT22;319;48.764;9.174;2023-02-08T17:11:18;2.80;85.60
674;DHT22;319;48.764;9.174;2023-02-08T17:13:45;2.70;87.00
674;DHT22;319;48.764;9.174;2023-02-08T17:16:16;2.70;87.70
674;DHT22;319;48.764;9.174;2023-02-08T17:18:44;2.60;88.70
674;DHT22;319;48.764;9.174;2023-02-08T17:21:10;2.60;89.10
674;DHT22;319;48.764;9.174;2023-02-08T17:23:37;2.50;88.80
674;DHT22;319;48.764;9.174;2023-02-08T17:26:10;2.60;89.30
674;DHT22;319;48.764;9.174;2023-02-08T17:28:39;2.50;90.00
674;DHT22;319;48.764;9.174;2023-02-08T17:31:06;2.50;90.40
674;DHT22;319;48.764;9.174;2023-02-08T17:33:45;2.40;90.50
674;DHT22;319;48.764;9.174;2023-02-08T17:36:13;2.40;90.30
674;DHT22;319;48.764;9.174;2023-02-08T17:38:41;2.30;90.80
674;DHT22;319;48.764;9.174;2023-02-08T17:41:13;2.40;91.10
674;DHT22;319;48.764;9.174;2023-02-08T17:46:09;2.50;92.60